sensor_id;sensor_type;location;lat;lon;timestamp;temperature;humidity
35258;DHT22;21385;50.878;8.050;2023-06-14T00:01:17;17.10;78.40
35258;DHT22;21385;50.878;8.050;2023-06-14T00:03:45;17.00;79.00
35258;DHT22;21385;50.878;8.050;2023-06-14T00:06:13;17.00;79.40
35258;DHT22;21385;50.878;8.050;2023-06-14T00:08:38;17.00;80.40
35258;DHT22;21385;50.878;8.050;2023-06-14T00:11:05;16.90;81.20
35258;DHT22;21385;50.878;8.050;2023-06-14T00:13:31;16.90;81.80
35258;DHT22;21385;50.878;8.050;2023-06-14T00:15:56;16.90;81.80
35258;DHT22;21385;50.878;8.050;2023-06-14T00:18:22;16.80;81.40
35258;DHT22;21385;50.878;8.050;2023-06-14T00:20:49;16.80;81.30
35258;DHT22;21385;50.878;8.050;2023-06-14T00:23:15;16.80;82.50
35258;DHT22;21385;50.878;8.050;2023-06-14T00:25:41;16.80;84.60
35258;DHT22;21385;50.878;8.050;2023-06-14T00:28:07;16.70;85.50
35258;DHT22;21385;50.878;8.050;2023-06-14T00:30:32;16.70;86.10
35258;DHT22;21385;50.878;8.050;2023-06-14T00:32:58;16.70;86.70
35258;DHT22;21385;50.878;8.050;2023-06-14T00:35:24;16.60;87.40
35258;DHT22;21385;50.878;8.050;2023-06-14T00:37:50;16.60;87.60
35258;DHT22;21385;50.878;8.050;2023-06-14T00:40:16;16.50;86.80
35258;DHT22;21385;50.878;8.050;2023-06-14T00:42:42;16.50;85.90
35258;DHT22;21385;50.878;8.050;2023-06-14T00:45:08;16.50;85.30
35258;DHT22;21385;50.878;8.050;2023-06-14T00:47:35;16.50;85.00
35258;DHT22;21385;50.878;8.050;2023-06-14T00:50:03;16.40;84.70
35258;DHT22;21385;50.878;8.050;2023-06-14T00:52:30;16.40;84.30
35258;DHT22;21385;50.878;8.050;2023-06-14T00:54:57;16.40;84.20
35258;DHT22;21385;50.878;8.050;2023-06-14T00:57:23;16.40;84.10
35258;DHT22;21385;50.878;8.050;2023-06-14T00:59:49;16.40;83.60
35258;DHT22;21385;50.878;8.050;2023-06-14T01:02:15;16.40;83.60
35258;DHT22;21385;50.878;8.050;2023-06-14T01:04:43;16.30;83.50
35258;DHT22;21385;50.878;8.050;2023-06-14T01:10:38;16.30;85.00
35258;DHT22;21385;50.878;8.050;2023-06-14T01:15:43;16.30;89.30
35258;DHT22;21385;50.878;8.050;2023-06-14T01:18:09;16.30;89.90
35258;DHT22;21385;50.878;8.050;2023-06-14T01:20:43;16.20;90.50
35258;DHT22;21385;50.878;8.050;2023-06-14T01:23:11;16.20;90.90
35258;DHT22;21385;50.878;8.050;2023-06-14T01:25:40;16.20;91.20
35258;DHT22;21385;50.878;8.050;2023-06-14T01:28:10;16.20;91.50
35258;DHT22;21385;50.878;8.050;2023-06-14T01:30:40;16.20;91.70
35258;DHT22;21385;50.878;8.050;2023-06-14T01:33:13;16.10;91.60
35258;DHT22;21385;50.878;8.050;2023-06-14T01:35:43;16.10;91.90
35258;DHT22;21385;50.878;8.050;2023-06-14T01:38:09;16.00;91.70
35258;DHT22;21385;50.878;8.050;2023-06-14T01:40:35;15.90;91.60
35258;DHT22;21385;50.878;8.050;2023-06-14T01:43:02;15.90;91.70
35258;DHT22;21385;50.878;8.050;2023-06-14T01:45:29;15.80;91.60
35258;DHT22;21385;50.878;8.050;2023-06-14T01:47:55;15.80;92.40
35258;DHT22;21385;50.878;8.050;2023-06-14T01:50:21;15.80;93.00
35258;DHT22;21385;50.878;8.050;2023-06-14T01:52:47;15.80;93.60
35258;DHT22;21385;50.878;8.050;2023-06-14T01:55:12;15.70;93.20
35258;DHT22;21385;50.878;8.050;2023-06-14T01:57:38;15.60;92.80
35258;DHT22;21385;50.878;8.050;2023-06-14T02:00:05;15.50;92.70
35258;DHT22;21385;50.878;8.050;2023-06-14T02:02:35;15.50;92.30
35258;DHT22;21385;50.878;8.050;2023-06-14T02:05:01;15.40;92.20
35258;DHT22;21385;50.878;8.050;2023-06-14T02:07:27;15.40;92.30
35258;DHT22;21385;50.878;8.050;2023-06-14T02:09:52;15.30;92.40
35258;DHT22;21385;50.878;8.050;2023-06-14T02:12:18;15.30;92.80
35258;DHT22;21385;50.878;8.050;2023-06-14T02:14:43;15.20;92.90
35258;DHT22;21385;50.878;8.050;2023-06-14T02:17:10;15.10;93.20
35258;DHT22;21385;50.878;8.050;2023-06-14T02:19:35;15.10;93.40
35258;DHT22;21385;50.878;8.050;2023-06-14T02:22:01;15.00;93.60
35258;DHT22;21385;50.878;8.050;2023-06-14T02:24:27;15.00;93.90
35258;DHT22;21385;50.878;8.050;2023-06-14T02:26:52;15.00;94.20
35258;DHT22;21385;50.878;8.050;2023-06-14T02:29:18;14.90;95.20
35258;DHT22;21385;50.878;8.050;2023-06-14T02:31:43;14.90;96.00
35258;DHT22;21385;50.878;8.050;2023-06-14T02:34:09;14.90;96.60
35258;DHT22;21385;50.878;8.050;2023-06-14T02:36:35;14.90;97.00
35258;DHT22;21385;50.878;8.050;2023-06-14T02:39:09;14.90;97.40
35258;DHT22;21385;50.878;8.050;2023-06-14T02:41:35;14.80;97.90
35258;DHT22;21385;50.878;8.050;2023-06-14T02:44:02;14.80;98.10
35258;DHT22;21385;50.878;8.050;2023-06-14T02:46:27;14.80;98.50
35258;DHT22;21385;50.878;8.050;2023-06-14T02:48:53;14.70;98.70
35258;DHT22;21385;50.878;8.050;2023-06-14T02:51:19;14.70;98.90
35258;DHT22;21385;50.878;8.050;2023-06-14T02:53:44;14.70;99.10
35258;DHT22;21385;50.878;8.050;2023-06-14T02:56:10;14.70;99.20
35258;DHT22;21385;50.878;8.050;2023-06-14T02:58:37;14.70;99.30
35258;DHT22;21385;50.878;8.050;2023-06-14T03:01:04;14.60;99.50
35258;DHT22;21385;50.878;8.050;2023-06-14T03:03:31;14.60;99.50
35258;DHT22;21385;50.878;8.050;2023-06-14T03:05:58;14.60;99.40
35258;DHT22;21385;50.878;8.050;2023-06-14T03:08:30;14.60;99.60
35258;DHT22;21385;50.878;8.050;2023-06-14T03:10:57;14.60;99.90
35258;DHT22;21385;50.878;8.050;2023-06-14T03:13:23;14.60;99.90
35258;DHT22;21385;50.878;8.050;2023-06-14T03:15:48;14.60;99.90
35258;DHT22;21385;50.878;8.050;2023-06-14T03:18:17;14.60;99.90
35258;DHT22;21385;50.878;8.050;2023-06-14T03:20:43;14.60;99.90
35258;DHT22;21385;50.878;8.050;2023-06-14T03:23:11;14.60;99.90
35258;DHT22;21385;50.878;8.050;2023-06-14T03:25:37;14.60;99.90
35258;DHT22;21385;50.878;8.050;2023-06-14T03:28:04;14.60;99.90
35258;DHT22;21385;50.878;8.050;2023-06-14T03:30:31;14.60;99.90
35258;DHT22;21385;50.878;8.050;2023-06-14T03:32:57;14.60;99.90
35258;DHT22;21385;50.878;8.050;2023-06-14T03:35:23;14.60;99.90
35258;DHT22;21385;50.878;8.050;2023-06-14T03:37:49;14.60;99.90
35258;DHT22;21385;50.878;8.050;2023-06-14T03:40:16;14.60;99.90
35258;DHT22;21385;50.878;8.050;2023-06-14T03:42:42;14.60;99.90
35258;DHT22;21385;50.878;8.050;2023-06-14T03:45:07;14.60;99.90
35258;DHT22;21385;50.878;8.050;2023-06-14T03:47:34;14.60;99.90
35258;DHT22;21385;50.878;8.050;2023-06-14T03:50:00;14.60;99.90
35258;DHT22;21385;50.878;8.050;2023-06-14T03:52:26;14.60;99.90
35258;DHT22;21385;50.878;8.050;2023-06-14T03:54:52;14.60;99.90
35258;DHT22;21385;50.878;8.050;2023-06-14T03:57:18;14.50;99.90
35258;DHT22;21385;50.878;8.050;2023-06-14T03:59:44;14.50;99.90
35258;DHT22;21385;50.878;8.050;2023-06-14T04:02:09;14.50;99.90
35258;DHT22;21385;50.878;8.050;2023-06-14T04:04:35;14.50;99.90
35258;DHT22;21385;50.878;8.050;2023-06-14T04:07:01;14.50;99.90
35258;DHT22;21385;50.878;8.050;2023-06-14T04:09:31;14.40;99.90
35258;DHT22;21385;50.878;8.050;2023-06-14T04:11:57;14.40;99.90
35258;DHT22;21385;50.878;8.050;2023-06-14T04:14:22;14.40;99.90
35258;DHT22;21385;50.878;8.050;2023-06-14T04:16:49;14.40;99.90
35258;DHT22;21385;50.878;8.050;2023-06-14T04:19:15;14.30;99.90
35258;DHT22;21385;50.878;8.050;2023-06-14T04:21:41;14.40;99.90
35258;DHT22;21385;50.878;8.050;2023-06-14T04:24:07;14.40;99.90
35258;DHT22;21385;50.878;8.050;2023-06-14T04:26:38;14.40;99.90
35258;DHT22;21385;50.878;8.050;2023-06-14T04:29:05;14.40;99.90
35258;DHT22;21385;50.878;8.050;2023-06-14T04:31:31;14.50;99.90
35258;DHT22;21385;50.878;8.050;2023-06-14T04:33:59;14.50;99.90
35258;DHT22;21385;50.878;8.050;2023-06-14T04:36:25;14.50;99.90
35258;DHT22;21385;50.878;8.050;2023-06-14T04:38:53;14.50;99.90
35258;DHT22;21385;50.878;8.050;2023-06-14T04:41:21;14.50;99.90
35258;DHT22;21385;50.878;8.050;2023-06-14T04:43:48;14.60;99.90
35258;DHT22;21385;50.878;8.050;2023-06-14T04:46:14;14.60;99.90
35258;DHT22;21385;50.878;8.050;2023-06-14T04:48:41;14.60;99.90
35258;DHT22;21385;50.878;8.050;2023-06-14T04:51:08;14.60;99.90
35258;DHT22;21385;50.878;8.050;2023-06-14T04:53:35;14.60;99.90
35258;DHT22;21385;50.878;8.050;2023-06-14T04:56:00;14.60;99.90
35258;DHT22;21385;50.878;8.050;2023-06-14T04:58:27;14.60;99.90
35258;DHT22;21385;50.878;8.050;2023-06-14T05:00:54;14.70;99.90
35258;DHT22;21385;50.878;8.050;2023-06-14T05:03:21;14.70;99.90
35258;DHT22;21385;50.878;8.050;2023-06-14T05:10:39;15.10;99.90
35258;DHT22;21385;50.878;8.050;2023-06-14T05:13:04;15.10;99.90
35258;DHT22;21385;50.878;8.050;2023-06-14T05:15:30;15.20;99.90
35258;DHT22;21385;50.878;8.050;2023-06-14T05:20:23;15.40;99.90
35258;DHT22;21385;50.878;8.050;2023-06-14T05:22:51;15.50;99.90
35258;DHT22;21385;50.878;8.050;2023-06-14T05:25:17;15.60;99.90
35258;DHT22;21385;50.878;8.050;2023-06-14T05:52:04;16.70;96.30
35258;DHT22;21385;50.878;8.050;2023-06-14T05:54:30;16.70;96.60
35258;DHT22;21385;50.878;8.050;2023-06-14T05:56:56;16.90;96.40
35258;DHT22;21385;50.878;8.050;2023-06-14T05:59:26;16.90;96.10
35258;DHT22;21385;50.878;8.050;2023-06-14T06:01:52;17.00;96.00
35258;DHT22;21385;50.878;8.050;2023-06-14T06:04:18;17.00;96.00
35258;DHT22;21385;50.878;8.050;2023-06-14T06:06:44;17.10;96.60
35258;DHT22;21385;50.878;8.050;2023-06-14T06:09:10;17.20;96.50
35258;DHT22;21385;50.878;8.050;2023-06-14T06:11:36;17.30;95.80
35258;DHT22;21385;50.878;8.050;2023-06-14T06:14:01;17.40;95.30
35258;DHT22;21385;50.878;8.050;2023-06-14T06:16:27;17.50;95.00
35258;DHT22;21385;50.878;8.050;2023-06-14T06:18:53;17.40;95.00
35258;DHT22;21385;50.878;8.050;2023-06-14T06:21:18;17.50;94.90
35258;DHT22;21385;50.878;8.050;2023-06-14T06:23:44;17.60;94.80
35258;DHT22;21385;50.878;8.050;2023-06-14T06:26:10;17.70;94.70
35258;DHT22;21385;50.878;8.050;2023-06-14T06:28:35;17.70;94.30
35258;DHT22;21385;50.878;8.050;2023-06-14T06:31:01;17.80;94.30
35258;DHT22;21385;50.878;8.050;2023-06-14T06:33:26;17.90;94.10
35258;DHT22;21385;50.878;8.050;2023-06-14T06:35:52;17.90;93.50
35258;DHT22;21385;50.878;8.050;2023-06-14T06:38:17;17.90;93.50
35258;DHT22;21385;50.878;8.050;2023-06-14T06:40:44;17.90;93.20
35258;DHT22;21385;50.878;8.050;2023-06-14T06:43:10;17.90;93.20
35258;DHT22;21385;50.878;8.050;2023-06-14T06:45:39;18.00;93.40
35258;DHT22;21385;50.878;8.050;2023-06-14T06:48:05;18.00;93.30
35258;DHT22;21385;50.878;8.050;2023-06-14T06:50:30;18.10;93.30
35258;DHT22;21385;50.878;8.050;2023-06-14T06:52:56;18.20;93.00
35258;DHT22;21385;50.878;8.050;2023-06-14T06:55:22;18.20;93.10
35258;DHT22;21385;50.878;8.050;2023-06-14T06:57:48;18.30;93.00
35258;DHT22;21385;50.878;8.050;2023-06-14T07:00:15;18.40;92.80
35258;DHT22;21385;50.878;8.050;2023-06-14T07:02:41;18.50;92.90
35258;DHT22;21385;50.878;8.050;2023-06-14T07:05:07;18.60;92.70
35258;DHT22;21385;50.878;8.050;2023-06-14T07:07:34;18.70;92.40
35258;DHT22;21385;50.878;8.050;2023-06-14T07:10:00;18.70;91.90
35258;DHT22;21385;50.878;8.050;2023-06-14T07:12:26;18.80;92.10
35258;DHT22;21385;50.878;8.050;2023-06-14T07:14:51;18.90;91.60
35258;DHT22;21385;50.878;8.050;2023-06-14T07:17:17;18.90;91.50
35258;DHT22;21385;50.878;8.050;2023-06-14T07:19:42;19.00;91.70
35258;DHT22;21385;50.878;8.050;2023-06-14T07:22:08;19.00;90.90
35258;DHT22;21385;50.878;8.050;2023-06-14T07:24:34;19.10;90.60
35258;DHT22;21385;50.878;8.050;2023-06-14T07:27:01;19.10;90.90
35258;DHT22;21385;50.878;8.050;2023-06-14T07:29:28;19.10;91.10
35258;DHT22;21385;50.878;8.050;2023-06-14T07:31:54;19.20;91.70
35258;DHT22;21385;50.878;8.050;2023-06-14T07:34:19;19.30;91.40
35258;DHT22;21385;50.878;8.050;2023-06-14T07:36:45;19.50;91.10
35258;DHT22;21385;50.878;8.050;2023-06-14T07:39:11;19.50;90.70
35258;DHT22;21385;50.878;8.050;2023-06-14T07:41:37;19.60;90.00
35258;DHT22;21385;50.878;8.050;2023-06-14T07:44:03;19.60;90.30
35258;DHT22;21385;50.878;8.050;2023-06-14T07:46:28;19.70;89.10
35258;DHT22;21385;50.878;8.050;2023-06-14T07:48:54;19.70;88.70
35258;DHT22;21385;50.878;8.050;2023-06-14T07:51:19;19.70;89.10
35258;DHT22;21385;50.878;8.050;2023-06-14T07:53:47;19.80;90.00
35258;DHT22;21385;50.878;8.050;2023-06-14T07:56:13;19.90;88.70
35258;DHT22;21385;50.878;8.050;2023-06-14T07:58:38;19.90;89.60
35258;DHT22;21385;50.878;8.050;2023-06-14T08:01:04;20.00;87.20
35258;DHT22;21385;50.878;8.050;2023-06-14T08:03:32;20.10;86.10
35258;DHT22;21385;50.878;8.050;2023-06-14T08:05:57;20.10;86.00
35258;DHT22;21385;50.878;8.050;2023-06-14T08:08:23;20.10;85.10
35258;DHT22;21385;50.878;8.050;2023-06-14T08:10:49;20.20;83.70
35258;DHT22;21385;50.878;8.050;2023-06-14T08:13:14;20.20;85.70
35258;DHT22;21385;50.878;8.050;2023-06-14T08:15:40;20.30;82.70
35258;DHT22;21385;50.878;8.050;2023-06-14T08:18:06;20.30;82.00
35258;DHT22;21385;50.878;8.050;2023-06-14T08:20:31;20.50;82.60
35258;DHT22;21385;50.878;8.050;2023-06-14T08:22:57;20.60;81.20
35258;DHT22;21385;50.878;8.050;2023-06-14T08:25:23;20.70;78.30
35258;DHT22;21385;50.878;8.050;2023-06-14T08:27:49;20.80;79.80
35258;DHT22;21385;50.878;8.050;2023-06-14T08:30:16;20.80;76.80
35258;DHT22;21385;50.878;8.050;2023-06-14T08:32:43;20.90;76.30
35258;DHT22;21385;50.878;8.050;2023-06-14T08:35:08;20.90;77.30
35258;DHT22;21385;50.878;8.050;2023-06-14T08:37:41;21.00;77.20
35258;DHT22;21385;50.878;8.050;2023-06-14T08:40:23;21.10;77.40
35258;DHT22;21385;50.878;8.050;2023-06-14T08:42:53;21.10;76.60
35258;DHT22;21385;50.878;8.050;2023-06-14T08:45:23;21.20;76.70
35258;DHT22;21385;50.878;8.050;2023-06-14T08:47:50;21.40;76.60
35258;DHT22;21385;50.878;8.050;2023-06-14T08:50:21;21.40;75.70
35258;DHT22;21385;50.878;8.050;2023-06-14T08:52:48;21.50;77.00
35258;DHT22;21385;50.878;8.050;2023-06-14T08:55:18;21.60;77.00
35258;DHT22;21385;50.878;8.050;2023-06-14T08:57:46;21.70;76.40
35258;DHT22;21385;50.878;8.050;2023-06-14T09:00:13;21.80;72.70
35258;DHT22;21385;50.878;8.050;2023-06-14T09:02:40;21.90;72.40
35258;DHT22;21385;50.878;8.050;2023-06-14T09:05:12;21.90;71.70
35258;DHT22;21385;50.878;8.050;2023-06-14T09:07:44;21.90;72.10
35258;DHT22;21385;50.878;8.050;2023-06-14T09:10:11;21.90;74.30
35258;DHT22;21385;50.878;8.050;2023-06-14T09:12:37;22.00;70.50
35258;DHT22;21385;50.878;8.050;2023-06-14T09:15:04;22.10;70.50
35258;DHT22;21385;50.878;8.050;2023-06-14T09:17:38;22.10;70.00
35258;DHT22;21385;50.878;8.050;2023-06-14T09:20:08;22.20;68.50
35258;DHT22;21385;50.878;8.050;2023-06-14T09:22:43;22.20;66.80
35258;DHT22;21385;50.878;8.050;2023-06-14T09:25:09;22.20;66.20
35258;DHT22;21385;50.878;8.050;2023-06-14T09:27:35;22.30;66.10
35258;DHT22;21385;50.878;8.050;2023-06-14T09:30:04;22.30;66.00
35258;DHT22;21385;50.878;8.050;2023-06-14T09:32:30;22.20;66.10
35258;DHT22;21385;50.878;8.050;2023-06-14T09:34:56;22.30;66.10
35258;DHT22;21385;50.878;8.050;2023-06-14T09:37:32;22.40;66.80
35258;DHT22;21385;50.878;8.050;2023-06-14T09:39:59;22.50;68.10
35258;DHT22;21385;50.878;8.050;2023-06-14T09:42:25;22.70;65.40
35258;DHT22;21385;50.878;8.050;2023-06-14T09:44:52;22.80;68.10
35258;DHT22;21385;50.878;8.050;2023-06-14T09:47:19;23.00;65.80
35258;DHT22;21385;50.878;8.050;2023-06-14T09:49:45;23.20;65.80
35258;DHT22;21385;50.878;8.050;2023-06-14T09:52:14;23.30;65.50
35258;DHT22;21385;50.878;8.050;2023-06-14T09:54:42;23.50;65.90
35258;DHT22;21385;50.878;8.050;2023-06-14T09:57:22;23.60;63.00
35258;DHT22;21385;50.878;8.050;2023-06-14T09:59:48;23.60;61.60
35258;DHT22;21385;50.878;8.050;2023-06-14T10:02:28;23.70;63.50
35258;DHT22;21385;50.878;8.050;2023-06-14T10:05:21;23.80;61.60
35258;DHT22;21385;50.878;8.050;2023-06-14T10:10:13;23.90;62.20
35258;DHT22;21385;50.878;8.050;2023-06-14T10:12:38;24.10;63.20
35258;DHT22;21385;50.878;8.050;2023-06-14T10:15:07;24.20;59.30
35258;DHT22;21385;50.878;8.050;2023-06-14T10:17:56;24.30;58.50
35258;DHT22;21385;50.878;8.050;2023-06-14T10:20:42;24.40;59.50
35258;DHT22;21385;50.878;8.050;2023-06-14T10:23:17;24.50;57.90
35258;DHT22;21385;50.878;8.050;2023-06-14T10:25:44;24.50;58.60
35258;DHT22;21385;50.878;8.050;2023-06-14T10:28:20;24.40;58.70
35258;DHT22;21385;50.878;8.050;2023-06-14T10:33:56;24.60;57.60
35258;DHT22;21385;50.878;8.050;2023-06-14T10:41:27;24.70;58.90
35258;DHT22;21385;50.878;8.050;2023-06-14T10:46:40;25.00;56.50
35258;DHT22;21385;50.878;8.050;2023-06-14T10:49:05;25.20;59.10
35258;DHT22;21385;50.878;8.050;2023-06-14T10:51:39;25.30;57.40
35258;DHT22;21385;50.878;8.050;2023-06-14T10:54:15;25.50;57.90
35258;DHT22;21385;50.878;8.050;2023-06-14T10:56:51;25.70;56.90
35258;DHT22;21385;50.878;8.050;2023-06-14T10:59:19;25.70;56.10
35258;DHT22;21385;50.878;8.050;2023-06-14T11:01:57;25.50;55.10
35258;DHT22;21385;50.878;8.050;2023-06-14T11:04:39;25.40;56.10
35258;DHT22;21385;50.878;8.050;2023-06-14T11:10:43;25.50;55.30
35258;DHT22;21385;50.878;8.050;2023-06-14T11:13:10;25.50;54.10
35258;DHT22;21385;50.878;8.050;2023-06-14T11:15:37;25.60;53.60
35258;DHT22;21385;50.878;8.050;2023-06-14T11:18:05;25.70;55.20
35258;DHT22;21385;50.878;8.050;2023-06-14T11:20:34;25.90;55.20
35258;DHT22;21385;50.878;8.050;2023-06-14T11:23:00;26.30;53.80
35258;DHT22;21385;50.878;8.050;2023-06-14T11:25:26;26.50;52.60
35258;DHT22;21385;50.878;8.050;2023-06-14T11:27:54;26.50;52.20
35258;DHT22;21385;50.878;8.050;2023-06-14T11:30:20;26.50;52.90
35258;DHT22;21385;50.878;8.050;2023-06-14T11:32:47;26.40;52.50
35258;DHT22;21385;50.878;8.050;2023-06-14T11:35:13;26.30;53.40
35258;DHT22;21385;50.878;8.050;2023-06-14T11:37:39;26.10;53.00
35258;DHT22;21385;50.878;8.050;2023-06-14T11:40:07;25.90;53.10
35258;DHT22;21385;50.878;8.050;2023-06-14T11:42:34;26.10;53.20
35258;DHT22;21385;50.878;8.050;2023-06-14T11:45:00;26.40;53.50
35258;DHT22;21385;50.878;8.050;2023-06-14T11:47:38;26.70;51.60
35258;DHT22;21385;50.878;8.050;2023-06-14T11:50:06;27.00;51.90
35258;DHT22;21385;50.878;8.050;2023-06-14T11:52:32;27.20;52.00
35258;DHT22;21385;50.878;8.050;2023-06-14T11:54:58;27.50;50.50
35258;DHT22;21385;50.878;8.050;2023-06-14T11:57:25;27.60;49.80
35258;DHT22;21385;50.878;8.050;2023-06-14T11:59:51;27.50;50.20
35258;DHT22;21385;50.878;8.050;2023-06-14T12:02:18;27.40;50.40
35258;DHT22;21385;50.878;8.050;2023-06-14T12:04:46;27.40;50.20
35258;DHT22;21385;50.878;8.050;2023-06-14T12:07:13;27.30;50.50
35258;DHT22;21385;50.878;8.050;2023-06-14T12:10:03;27.20;49.50
35258;DHT22;21385;50.878;8.050;2023-06-14T12:12:35;26.90;49.90
35258;DHT22;21385;50.878;8.050;2023-06-14T12:15:03;26.60;50.70
35258;DHT22;21385;50.878;8.050;2023-06-14T12:17:32;26.70;51.30
35258;DHT22;21385;50.878;8.050;2023-06-14T12:19:58;26.70;51.00
35258;DHT22;21385;50.878;8.050;2023-06-14T12:22:23;26.60;50.40
35258;DHT22;21385;50.878;8.050;2023-06-14T12:24:49;26.50;50.70
35258;DHT22;21385;50.878;8.050;2023-06-14T12:27:15;26.60;52.30
35258;DHT22;21385;50.878;8.050;2023-06-14T12:29:44;26.80;51.40
35258;DHT22;21385;50.878;8.050;2023-06-14T12:32:10;26.90;50.90
35258;DHT22;21385;50.878;8.050;2023-06-14T12:34:35;26.80;50.40
35258;DHT22;21385;50.878;8.050;2023-06-14T12:37:02;26.80;50.70
35258;DHT22;21385;50.878;8.050;2023-06-14T12:39:29;26.90;50.10
35258;DHT22;21385;50.878;8.050;2023-06-14T12:41:57;27.10;50.00
35258;DHT22;21385;50.878;8.050;2023-06-14T12:44:22;27.30;48.40
35258;DHT22;21385;50.878;8.050;2023-06-14T12:46:48;27.60;48.90
35258;DHT22;21385;50.878;8.050;2023-06-14T12:49:16;27.80;47.40
35258;DHT22;21385;50.878;8.050;2023-06-14T12:51:42;27.90;46.60
35258;DHT22;21385;50.878;8.050;2023-06-14T12:54:07;28.10;47.20
35258;DHT22;21385;50.878;8.050;2023-06-14T12:56:33;28.40;46.30
35258;DHT22;21385;50.878;8.050;2023-06-14T12:58:59;28.50;45.40
35258;DHT22;21385;50.878;8.050;2023-06-14T13:01:24;28.50;45.80
35258;DHT22;21385;50.878;8.050;2023-06-14T13:03:51;28.40;45.30
35258;DHT22;21385;50.878;8.050;2023-06-14T13:06:21;28.30;46.00
35258;DHT22;21385;50.878;8.050;2023-06-14T13:08:48;28.10;45.90
35258;DHT22;21385;50.878;8.050;2023-06-14T13:11:13;28.10;45.10
35258;DHT22;21385;50.878;8.050;2023-06-14T13:13:39;28.10;45.10
35258;DHT22;21385;50.878;8.050;2023-06-14T13:16:04;27.90;44.80
35258;DHT22;21385;50.878;8.050;2023-06-14T13:18:30;27.80;46.10
35258;DHT22;21385;50.878;8.050;2023-06-14T13:20:56;27.80;45.10
35258;DHT22;21385;50.878;8.050;2023-06-14T13:23:21;27.90;45.60
35258;DHT22;21385;50.878;8.050;2023-06-14T13:25:47;28.30;45.30
35258;DHT22;21385;50.878;8.050;2023-06-14T13:28:15;28.50;45.00
35258;DHT22;21385;50.878;8.050;2023-06-14T13:30:40;28.40;44.80
35258;DHT22;21385;50.878;8.050;2023-06-14T13:33:06;28.50;45.50
35258;DHT22;21385;50.878;8.050;2023-06-14T13:35:31;28.60;44.60
35258;DHT22;21385;50.878;8.050;2023-06-14T13:37:57;28.90;45.00
35258;DHT22;21385;50.878;8.050;2023-06-14T13:40:23;29.10;44.00
35258;DHT22;21385;50.878;8.050;2023-06-14T13:42:48;29.20;42.40
35258;DHT22;21385;50.878;8.050;2023-06-14T13:45:15;29.60;44.30
35258;DHT22;21385;50.878;8.050;2023-06-14T13:47:41;29.90;42.90
35258;DHT22;21385;50.878;8.050;2023-06-14T13:50:07;29.80;41.30
35258;DHT22;21385;50.878;8.050;2023-06-14T13:52:32;29.60;41.90
35258;DHT22;21385;50.878;8.050;2023-06-14T13:54:58;29.60;43.60
35258;DHT22;21385;50.878;8.050;2023-06-14T13:57:24;29.60;42.40
35258;DHT22;21385;50.878;8.050;2023-06-14T13:59:49;29.60;42.00
35258;DHT22;21385;50.878;8.050;2023-06-14T14:04:41;29.20;39.70
35258;DHT22;21385;50.878;8.050;2023-06-14T14:07:07;29.30;41.30
35258;DHT22;21385;50.878;8.050;2023-06-14T14:09:34;29.60;41.50
35258;DHT22;21385;50.878;8.050;2023-06-14T14:12:01;30.00;40.70
35258;DHT22;21385;50.878;8.050;2023-06-14T14:14:27;30.50;41.10
35258;DHT22;21385;50.878;8.050;2023-06-14T14:16:53;30.80;40.10
35258;DHT22;21385;50.878;8.050;2023-06-14T14:19:23;30.70;40.10
35258;DHT22;21385;50.878;8.050;2023-06-14T14:21:49;30.70;39.50
35258;DHT22;21385;50.878;8.050;2023-06-14T14:24:14;30.60;38.90
35258;DHT22;21385;50.878;8.050;2023-06-14T14:26:41;30.70;38.20
35258;DHT22;21385;50.878;8.050;2023-06-14T14:29:07;30.80;38.60
35258;DHT22;21385;50.878;8.050;2023-06-14T14:31:33;31.00;37.80
35258;DHT22;21385;50.878;8.050;2023-06-14T14:33:59;31.10;38.10
35258;DHT22;21385;50.878;8.050;2023-06-14T14:36:25;31.50;38.20
35258;DHT22;21385;50.878;8.050;2023-06-14T14:38:50;31.90;37.30
35258;DHT22;21385;50.878;8.050;2023-06-14T14:41:17;32.40;37.00
35258;DHT22;21385;50.878;8.050;2023-06-14T14:43:43;32.60;37.50
35258;DHT22;21385;50.878;8.050;2023-06-14T14:46:08;32.60;36.10
35258;DHT22;21385;50.878;8.050;2023-06-14T14:48:34;32.40;35.50
35258;DHT22;21385;50.878;8.050;2023-06-14T14:50:59;32.30;35.70
35258;DHT22;21385;50.878;8.050;2023-06-14T14:53:25;32.20;35.60
35258;DHT22;21385;50.878;8.050;2023-06-14T14:55:50;32.40;36.30
35258;DHT22;21385;50.878;8.050;2023-06-14T14:58:16;32.50;35.10
35258;DHT22;21385;50.878;8.050;2023-06-14T15:00:44;32.80;35.40
35258;DHT22;21385;50.878;8.050;2023-06-14T15:03:09;33.20;34.40
35258;DHT22;21385;50.878;8.050;2023-06-14T15:05:35;33.20;33.30
35258;DHT22;21385;50.878;8.050;2023-06-14T15:08:02;33.10;34.00
35258;DHT22;21385;50.878;8.050;2023-06-14T15:10:28;33.00;33.70
35258;DHT22;21385;50.878;8.050;2023-06-14T15:12:54;32.50;34.40
35258;DHT22;21385;50.878;8.050;2023-06-14T15:15:21;32.10;35.20
35258;DHT22;21385;50.878;8.050;2023-06-14T15:17:47;31.70;35.90
35258;DHT22;21385;50.878;8.050;2023-06-14T15:20:13;31.50;36.60
35258;DHT22;21385;50.878;8.050;2023-06-14T15:22:39;31.30;35.50
35258;DHT22;21385;50.878;8.050;2023-06-14T15:25:05;31.00;36.50
35258;DHT22;21385;50.878;8.050;2023-06-14T15:27:31;31.00;37.20
35258;DHT22;21385;50.878;8.050;2023-06-14T15:29:56;31.30;37.40
35258;DHT22;21385;50.878;8.050;2023-06-14T15:32:22;31.50;35.40
35258;DHT22;21385;50.878;8.050;2023-06-14T15:34:48;31.80;35.10
35258;DHT22;21385;50.878;8.050;2023-06-14T15:37:13;32.10;35.70
35258;DHT22;21385;50.878;8.050;2023-06-14T15:39:39;32.30;35.40
35258;DHT22;21385;50.878;8.050;2023-06-14T15:42:04;32.70;34.00
35258;DHT22;21385;50.878;8.050;2023-06-14T15:44:31;32.60;34.70
35258;DHT22;21385;50.878;8.050;2023-06-14T15:46:57;32.30;34.40
35258;DHT22;21385;50.878;8.050;2023-06-14T15:49:23;31.90;35.00
35258;DHT22;21385;50.878;8.050;2023-06-14T15:51:48;31.50;35.60
35258;DHT22;21385;50.878;8.050;2023-06-14T15:54:14;31.30;35.90
35258;DHT22;21385;50.878;8.050;2023-06-14T15:56:40;31.10;36.40
35258;DHT22;21385;50.878;8.050;2023-06-14T15:59:05;30.90;35.50
35258;DHT22;21385;50.878;8.050;2023-06-14T16:01:32;30.80;35.60
35258;DHT22;21385;50.878;8.050;2023-06-14T16:03:58;31.00;36.00
35258;DHT22;21385;50.878;8.050;2023-06-14T16:06:24;31.30;35.20
35258;DHT22;21385;50.878;8.050;2023-06-14T16:08:49;31.70;35.10
35258;DHT22;21385;50.878;8.050;2023-06-14T16:11:15;32.00;35.10
35258;DHT22;21385;50.878;8.050;2023-06-14T16:13:41;32.20;34.60
35258;DHT22;21385;50.878;8.050;2023-06-14T16:16:09;32.40;34.40
35258;DHT22;21385;50.878;8.050;2023-06-14T16:18:35;32.30;33.10
35258;DHT22;21385;50.878;8.050;2023-06-14T16:21:00;32.20;32.80
35258;DHT22;21385;50.878;8.050;2023-06-14T16:23:27;32.20;32.70
35258;DHT22;21385;50.878;8.050;2023-06-14T16:25:52;32.00;31.40